Time;durP1;ratioP1;P1;durP2;ratioP2;P2;SDS_P1;SDS_P2;PMS_P1;PMS_P2;Temp;Humidity;BMP_temperature;BMP_pressure;BME280_temperature;BME280_humidity;BME280_pressure;Samples;Min_cycle;Max_cycle;Signal;HPM_P1;HPM_P2
2023/12/13 00:02:11;;;;;;;10.10;5.43;;;;;;;6.70;68.71;99585.16;5016064;28;97088;-76
2023/12/13 00:04:37;;;;;;;8.83;5.33;;;;;;;6.65;68.76;99568.72;5016188;28;97039;-76
2023/12/13 00:07:03;;;;;;;7.57;4.87;;;;;;;6.66;68.75;99581.19;5018351;28;97000;-76
2023/12/13 00:09:28;;;;;;;20.93;5.50;;;;;;;6.70;68.67;99576.91;5016047;28;97679;-76
2023/12/13 00:11:53;;;;;;;9.47;4.73;;;;;;;6.71;68.72;99572.16;5015744;28;101557;-76
2023/12/13 00:14:20;;;;;;;8.60;5.30;;;;;;;6.70;68.78;99579.66;5015221;28;97006;-76
2023/12/13 00:16:46;;;;;;;11.00;5.00;;;;;;;6.69;68.65;99556.19;5016874;28;97225;-76
2023/12/13 00:19:11;;;;;;;6.53;4.60;;;;;;;6.70;68.78;99557.66;5018528;28;103973;-76
2023/12/13 00:21:36;;;;;;;8.20;4.67;;;;;;;6.73;68.73;99564.88;5017269;28;98151;-74
2023/12/13 00:24:02;;;;;;;7.73;4.90;;;;;;;6.72;68.80;99570.91;4997880;28;102707;-76
2023/12/13 00:26:28;;;;;;;8.17;5.07;;;;;;;6.74;68.64;99568.38;5016933;28;96826;-76
2023/12/13 00:28:53;;;;;;;7.10;4.87;;;;;;;6.75;68.81;99565.13;5017074;28;97129;-76
2023/12/13 00:31:19;;;;;;;7.00;4.17;;;;;;;6.78;68.53;99571.59;5000928;27;99717;-76
2023/12/13 00:33:44;;;;;;;6.70;5.47;;;;;;;6.74;68.69;99560.16;5013504;28;97290;-76
2023/12/13 00:36:10;;;;;;;11.03;5.70;;;;;;;6.78;68.63;99566.84;5017323;28;100623;-76
2023/12/13 00:38:35;;;;;;;8.27;5.60;;;;;;;6.79;68.80;99568.31;5015781;27;98407;-76
2023/12/13 00:41:01;;;;;;;8.83;5.23;;;;;;;6.81;68.61;99571.28;5000395;28;99679;-76
2023/12/13 00:43:26;;;;;;;8.00;5.13;;;;;;;6.80;68.64;99558.81;5017292;28;97282;-76
2023/12/13 00:45:51;;;;;;;15.00;5.90;;;;;;;6.81;68.69;99576.78;5017188;28;97336;-76
2023/12/13 00:48:17;;;;;;;9.23;5.80;;;;;;;6.83;68.69;99559.78;5016550;28;96715;-75
2023/12/13 00:50:43;;;;;;;8.80;6.10;;;;;;;6.80;68.75;99563.56;5014249;28;97289;-76
2023/12/13 00:53:08;;;;;;;11.80;5.63;;;;;;;6.80;68.70;99538.84;5014572;28;99794;-76
2023/12/13 00:55:33;;;;;;;8.70;5.57;;;;;;;6.76;68.84;99536.38;4994867;28;100156;-75
2023/12/13 00:57:59;;;;;;;7.40;5.10;;;;;;;6.77;68.69;99553.59;4998748;28;99686;-76
2023/12/13 01:00:24;;;;;;;9.47;5.20;;;;;;;6.76;68.84;99550.13;5016823;28;97521;-76
2023/12/13 01:02:50;;;;;;;10.83;5.30;;;;;;;6.77;68.91;99539.84;5015698;28;97104;-76
2023/12/13 01:05:15;;;;;;;9.40;5.83;;;;;;;6.73;68.84;99531.91;5013992;28;97168;-76
2023/12/13 01:07:41;;;;;;;12.67;5.57;;;;;;;6.76;68.81;99530.88;5015584;28;97879;-75
2023/12/13 01:10:07;;;;;;;9.00;5.37;;;;;;;6.74;68.90;99521.66;5016537;28;97267;-76
2023/12/13 01:12:32;;;;;;;14.10;6.43;;;;;;;6.70;68.85;99516.44;5015160;28;97003;-76
2023/12/13 01:14:57;;;;;;;9.40;6.30;;;;;;;6.74;68.76;99519.63;5012746;28;105372;-76
2023/12/13 01:17:23;;;;;;;14.33;5.63;;;;;;;6.73;68.84;99520.91;5017684;28;97764;-76
2023/12/13 01:19:50;;;;;;;10.57;5.87;;;;;;;6.73;68.91;99520.91;5000061;28;100494;-76
2023/12/13 01:22:15;;;;;;;11.77;5.70;;;;;;;6.73;68.82;99528.41;5015305;28;97031;-76
2023/12/13 01:24:40;;;;;;;7.13;5.50;;;;;;;6.73;68.84;99517.41;5009427;28;101560;-75
2023/12/13 01:27:06;;;;;;;6.97;5.70;;;;;;;6.72;68.76;99535.91;5013342;28;97416;-76
2023/12/13 01:29:31;;;;;;;16.77;6.80;;;;;;;6.76;68.79;99552.13;5013416;28;109815;-76
2023/12/13 01:31:56;;;;;;;9.50;6.50;;;;;;;6.78;68.83;99535.84;5011796;28;98743;-76
2023/12/13 01:34:22;;;;;;;12.37;6.67;;;;;;;6.82;68.66;99556.31;5016943;28;97046;-76
2023/12/13 01:36:47;;;;;;;9.40;6.50;;;;;;;6.83;68.84;99535.78;5013914;28;97248;-75
2023/12/13 01:39:15;;;;;;;10.33;6.70;;;;;;;6.83;68.74;99533.03;5015660;28;97235;-76
2023/12/13 01:41:42;;;;;;;10.57;7.00;;;;;;;6.83;68.83;99543.31;5015140;28;96756;-76
2023/12/13 01:44:08;;;;;;;12.27;6.70;;;;;;;6.83;68.79;99544.03;4997257;28;97279;-75
2023/12/13 01:46:33;;;;;;;12.00;7.00;;;;;;;6.84;68.70;99536.53;5017783;28;97883;-76
2023/12/13 01:48:59;;;;;;;13.27;6.77;;;;;;;6.83;68.77;99535.06;5017854;28;97383;-76
2023/12/13 01:51:25;;;;;;;12.87;6.87;;;;;;;6.86;68.90;99542.25;5017398;28;96954;-76
2023/12/13 01:53:51;;;;;;;9.57;6.33;;;;;;;6.86;68.85;99537.50;5016605;28;96815;-75
2023/12/13 01:56:17;;;;;;;11.07;7.47;;;;;;;6.87;68.79;99550.00;5019861;28;96744;-76
2023/12/13 01:58:43;;;;;;;16.50;8.27;;;;;;;6.83;68.85;99524.78;5019104;28;96699;-76
2023/12/13 02:01:09;;;;;;;10.00;7.30;;;;;;;6.82;68.77;99517.81;5018739;28;97109;-76
2023/12/13 02:03:36;;;;;;;14.80;8.57;;;;;;;6.82;68.75;99522.56;5016546;28;96933;-76
2023/12/13 02:06:02;;;;;;;8.73;6.23;;;;;;;6.85;68.98;99516.75;5017981;28;97392;-75
2023/12/13 02:08:28;;;;;;;13.00;7.30;;;;;;;6.83;68.69;99519.28;5017029;28;98106;-76
2023/12/13 02:10:55;;;;;;;15.20;7.70;;;;;;;6.86;68.86;99523.00;5014346;28;98780;-76
2023/12/13 02:13:21;;;;;;;11.17;7.53;;;;;;;6.86;68.90;99518.25;5017753;28;97080;-76
2023/12/13 02:15:47;;;;;;;20.03;8.83;;;;;;;6.87;68.68;99521.75;5017995;28;97668;-76
2023/12/13 02:18:16;;;;;;;16.03;7.20;;;;;;;6.87;68.90;99521.75;5019553;28;97733;-76
2023/12/13 02:20:42;;;;;;;18.70;8.23;;;;;;;6.89;68.80;99520.00;5017180;28;96995;-75
2023/12/13 02:23:07;;;;;;;21.80;8.50;;;;;;;6.88;68.76;99513.00;5015613;28;97193;-76
2023/12/13 02:25:40;;;;;;;14.77;8.43;;;;;;;6.92;68.81;99518.19;5017882;28;97467;-76
2023/12/13 02:28:06;;;;;;;17.70;8.90;;;;;;;6.87;68.78;99508.78;5017613;28;98553;-77
2023/12/13 02:30:31;;;;;;;15.77;8.93;;;;;;;6.93;68.90;99511.44;5017513;28;96858;-76
2023/12/13 02:32:57;;;;;;;16.43;9.43;;;;;;;6.90;68.86;99510.47;5015370;28;96989;-75
2023/12/13 02:35:23;;;;;;;14.60;8.90;;;;;;;6.93;68.94;99522.44;5016767;28;96867;-76
2023/12/13 02:37:49;;;;;;;17.97;8.90;;;;;;;6.95;68.76;99522.66;5016855;28;97625;-76
2023/12/13 02:40:18;;;;;;;15.60;8.67;;;;;;;6.95;68.60;99517.91;4995393;28;97212;-76
2023/12/13 02:42:44;;;;;;;20.27;8.70;;;;;;;6.96;68.79;99527.63;5017307;28;97282;-76
2023/12/13 02:45:14;;;;;;;23.97;8.03;;;;;;;6.97;68.79;99500.88;5017310;28;97798;-76
2023/12/13 02:47:43;;;;;;;14.23;8.37;;;;;;;6.97;68.78;99520.88;5019734;28;97106;-76
2023/12/13 02:50:10;;;;;;;18.33;8.80;;;;;;;6.99;68.69;99515.59;5017446;28;97496;-76
2023/12/13 02:52:36;;;;;;;19.90;8.43;;;;;;;7.01;68.63;99529.56;5007977;28;98027;-76
2023/12/13 02:55:02;;;;;;;12.27;8.70;;;;;;;7.01;68.70;99507.56;5016144;27;99133;-76
2023/12/13 02:57:27;;;;;;;15.73;8.30;;;;;;;7.00;68.75;99502.59;5016761;28;96947;-76
2023/12/13 02:59:53;;;;;;;14.00;8.10;;;;;;;6.98;68.72;99500.34;5014278;28;97161;-76
2023/12/13 03:02:18;;;;;;;17.47;9.40;;;;;;;6.99;68.78;99495.59;5017581;28;97127;-76
2023/12/13 03:04:43;;;;;;;18.07;9.03;;;;;;;6.94;68.80;99491.66;5016600;28;97436;-76
2023/12/13 03:07:10;;;;;;;15.17;9.23;;;;;;;6.93;68.88;99495.69;5015981;28;97095;-76
2023/12/13 03:09:35;;;;;;;14.40;8.93;;;;;;;6.94;68.82;99491.66;5013483;28;97443;-76
2023/12/13 03:12:00;;;;;;;18.10;8.33;;;;;;;6.93;68.82;99505.94;5018852;28;97231;-76
2023/12/13 03:14:26;;;;;;;16.07;8.83;;;;;;;6.96;68.96;99497.38;5018544;28;97479;-76
2023/12/13 03:16:51;;;;;;;14.80;8.60;;;;;;;6.97;68.81;99487.13;5016654;28;98618;-76
2023/12/13 03:19:17;;;;;;;19.53;8.73;;;;;;;7.00;68.90;99491.59;5016373;28;97161;-76
2023/12/13 03:21:42;;;;;;;15.70;8.20;;;;;;;6.99;68.79;99492.84;4999853;28;97883;-76
2023/12/13 03:24:07;;;;;;;19.40;9.20;;;;;;;6.97;68.91;99490.63;5014737;28;110791;-76
2023/12/13 03:26:33;;;;;;;15.67;8.53;;;;;;;6.96;68.83;99502.88;5014291;28;101792;-76
2023/12/13 03:28:58;;;;;;;15.27;9.40;;;;;;;7.00;68.85;99499.84;5014526;28;97186;-76
2023/12/13 03:31:23;;;;;;;16.93;8.47;;;;;;;7.01;68.88;99504.81;4997068;28;104340;-76
2023/12/13 03:33:49;;;;;;;25.83;9.70;;;;;;;7.01;68.70;99501.31;4998678;28;98946;-76
2023/12/13 03:36:15;;;;;;;25.07;8.90;;;;;;;7.02;68.92;99500.84;5016711;28;97344;-76
2023/12/13 03:38:42;;;;;;;18.30;9.07;;;;;;;7.02;68.87;99489.06;5000461;28;96887;-76
2023/12/13 03:41:07;;;;;;;14.57;8.70;;;;;;;7.04;68.82;99503.81;5017132;28;96862;-76
2023/12/13 03:43:32;;;;;;;18.63;9.00;;;;;;;7.05;68.78;99493.53;5016243;28;101693;-76
2023/12/13 03:45:58;;;;;;;13.60;8.00;;;;;;;7.07;68.79;99483.50;5014678;28;111350;-76
2023/12/13 03:48:23;;;;;;;16.07;8.33;;;;;;;7.04;68.75;99473.56;4996722;28;108187;-76
2023/12/13 03:50:48;;;;;;;12.33;7.93;;;;;;;7.09;68.95;99488.50;5016976;28;98261;-76
2023/12/13 03:53:14;;;;;;;15.53;7.40;;;;;;;7.09;68.85;99474.00;5014941;28;97930;-76
2023/12/13 03:55:39;;;;;;;26.47;8.40;;;;;;;7.07;68.76;99483.50;4997760;28;99591;-76
2023/12/13 03:58:04;;;;;;;18.00;8.50;;;;;;;7.02;68.52;99476.09;5016327;28;96920;-76
2023/12/13 04:00:30;;;;;;;18.33;8.13;;;;;;;7.00;69.00;99484.09;5016721;28;102298;-76
2023/12/13 04:02:55;;;;;;;13.47;7.30;;;;;;;7.02;68.84;99487.06;5014421;28;99934;-76
2023/12/13 04:05:20;;;;;;;9.40;6.90;;;;;;;7.04;68.88;99481.81;5016100;28;97435;-76
2023/12/13 04:07:46;;;;;;;21.50;7.33;;;;;;;7.07;68.69;99476.53;5016092;27;97163;-76
2023/12/13 04:10:11;;;;;;;13.87;7.30;;;;;;;7.02;69.00;99480.81;4999533;28;105327;-76
2023/12/13 04:12:36;;;;;;;13.00;7.37;;;;;;;7.01;69.00;99482.06;5018261;28;100671;-75
2023/12/13 04:15:02;;;;;;;11.33;7.27;;;;;;;7.03;68.99;99480.31;5002579;28;100652;-76
2023/12/13 04:17:27;;;;;;;11.17;7.20;;;;;;;7.03;68.85;99472.06;5015568;28;100940;-76
2023/12/13 04:19:54;;;;;;;13.27;7.67;;;;;;;7.07;68.94;99474.53;5000460;28;100327;-74
2023/12/13 04:22:19;;;;;;;11.03;6.20;;;;;;;7.11;68.81;99474.22;5000226;28;100255;-76
2023/12/13 04:24:45;;;;;;;9.77;6.43;;;;;;;7.12;68.86;99478.44;5017079;28;97084;-76
2023/12/13 04:27:10;;;;;;;9.23;6.57;;;;;;;7.12;68.77;99481.19;5017245;27;102143;-76
2023/12/13 04:29:36;;;;;;;10.43;7.00;;;;;;;7.11;68.73;99485.22;5018835;28;97222;-76
2023/12/13 04:32:01;;;;;;;10.30;7.40;;;;;;;7.11;68.73;99472.22;5013125;28;107082;-75
2023/12/13 04:34:26;;;;;;;12.53;6.37;;;;;;;7.10;68.57;99478.97;5017079;28;97039;-76
2023/12/13 04:36:51;;;;;;;8.10;6.23;;;;;;;7.06;68.72;99470.28;5014955;28;97228;-76
2023/12/13 04:39:17;;;;;;;8.50;6.20;;;;;;;7.07;68.82;99476.53;5012370;28;96933;-75
2023/12/13 04:41:42;;;;;;;16.60;6.70;;;;;;;7.07;68.70;99490.28;5014553;28;97275;-76
2023/12/13 04:44:09;;;;;;;11.50;6.93;;;;;;;7.07;68.64;99476.53;5011709;28;105819;-76
2023/12/13 04:46:34;;;;;;;29.43;7.60;;;;;;;7.01;68.85;99485.56;4996048;28;97268;-75
2023/12/13 04:49:00;;;;;;;16.40;7.30;;;;;;;6.99;68.87;99493.59;5014290;28;96820;-76
2023/12/13 04:51:26;;;;;;;14.60;7.60;;;;;;;6.97;68.86;99482.38;5006968;27;97493;-77
2023/12/13 04:53:52;;;;;;;16.73;9.30;;;;;;;6.99;68.76;99477.09;5008207;27;98371;-76
2023/12/13 04:56:17;;;;;;;25.27;8.63;;;;;;;6.98;68.85;99481.09;5015226;28;97870;-76
2023/12/13 04:58:42;;;;;;;23.90;9.03;;;;;;;6.98;69.01;99481.09;5014780;28;97227;-76
2023/12/13 05:01:08;;;;;;;16.57;8.60;;;;;;;7.02;69.00;99480.81;4998665;28;99025;-76
2023/12/13 05:03:33;;;;;;;21.90;8.87;;;;;;;7.03;68.75;99479.56;5014681;28;98411;-76
2023/12/13 05:05:58;;;;;;;16.07;8.77;;;;;;;7.03;68.99;99494.06;5013686;27;96990;-76
2023/12/13 05:08:24;;;;;;;15.20;9.30;;;;;;;7.04;68.85;99476.31;5011893;28;97348;-76
2023/12/13 05:10:49;;;;;;;18.00;7.73;;;;;;;7.01;68.93;99474.59;5015011;28;111123;-76
2023/12/13 05:13:14;;;;;;;17.20;7.93;;;;;;;7.01;68.88;99480.09;5012125;28;104081;-76
2023/12/13 05:15:40;;;;;;;10.70;6.90;;;;;;;7.00;68.93;99473.09;5012121;28;97548;-76
2023/12/13 05:18:05;;;;;;;11.30;6.93;;;;;;;7.01;68.97;99474.59;5014406;27;96622;-76
2023/12/13 05:20:31;;;;;;;12.07;6.30;;;;;;;7.03;68.81;99496.06;5019497;27;99055;-76
2023/12/13 05:22:56;;;;;;;12.93;7.00;;;;;;;7.07;68.96;99494.50;5016000;28;98567;-76
2023/12/13 05:25:21;;;;;;;10.87;6.17;;;;;;;7.09;68.71;99474.75;5017821;28;97274;-76
2023/12/13 05:27:46;;;;;;;12.00;6.27;;;;;;;7.09;68.56;99477.50;5017039;28;96883;-76
2023/12/13 05:30:12;;;;;;;9.03;6.73;;;;;;;7.07;68.78;99489.00;5015793;28;103991;-76
2023/12/13 05:32:37;;;;;;;8.30;6.23;;;;;;;7.09;68.77;99471.25;5018066;28;96921;-76
2023/12/13 05:35:03;;;;;;;9.50;6.17;;;;;;;7.10;68.94;99478.22;5017640;28;97095;-76
2023/12/13 05:37:28;;;;;;;7.73;5.83;;;;;;;7.11;68.88;99479.72;5017032;28;97187;-76
2023/12/13 05:39:54;;;;;;;7.80;5.20;;;;;;;7.11;68.79;99477.72;5016461;28;97467;-75
2023/12/13 05:42:19;;;;;;;10.50;6.60;;;;;;;7.11;68.83;99474.97;5014158;28;97112;-77
2023/12/13 05:44:46;;;;;;;14.80;6.33;;;;;;;7.12;68.80;99478.44;5015996;28;96710;-76
2023/12/13 05:47:12;;;;;;;17.77;6.43;;;;;;;7.13;68.90;99491.69;5015795;28;97263;-76
2023/12/13 05:49:37;;;;;;;10.37;5.83;;;;;;;7.15;68.67;99488.41;5017926;28;97007;-76
2023/12/13 05:52:03;;;;;;;8.60;5.50;;;;;;;7.14;68.73;99473.91;5012623;28;107213;-76
2023/12/13 05:54:28;;;;;;;11.90;6.13;;;;;;;7.14;68.69;99490.41;5015696;28;99450;-76
2023/12/13 05:56:54;;;;;;;11.30;5.53;;;;;;;7.14;68.67;99481.44;5004134;28;99913;-76
2023/12/13 05:59:19;;;;;;;16.77;6.30;;;;;;;7.12;68.73;99476.44;5013540;28;97674;-76
2023/12/13 06:01:44;;;;;;;10.40;5.70;;;;;;;7.13;68.75;99477.19;5014277;28;98953;-76
2023/12/13 06:04:09;;;;;;;10.70;5.33;;;;;;;7.07;68.79;99480.03;5016730;28;97449;-76
2023/12/13 06:06:35;;;;;;;20.77;5.43;;;;;;;7.08;68.89;99484.25;5016866;28;96972;-76
2023/12/13 06:09:02;;;;;;;9.23;5.47;;;;;;;7.09;68.77;99482.25;5012567;28;109663;-75
2023/12/13 06:11:28;;;;;;;11.43;5.87;;;;;;;7.12;68.74;99490.19;5018035;28;97998;-76
2023/12/13 06:13:54;;;;;;;10.70;5.70;;;;;;;7.09;68.74;99482.25;5016750;28;97263;-76
2023/12/13 06:16:19;;;;;;;13.17;6.63;;;;;;;7.12;68.73;99498.44;5015530;28;97163;-76
2023/12/13 06:18:44;;;;;;;31.03;6.57;;;;;;;7.13;68.80;99485.44;5018950;28;98046;-76
2023/12/13 06:21:10;;;;;;;18.57;6.70;;;;;;;7.12;68.84;99483.94;5013755;28;97998;-77
2023/12/13 06:23:35;;;;;;;14.93;6.67;;;;;;;7.12;68.60;99478.44;5018260;28;102240;-76
2023/12/13 06:26:00;;;;;;;10.43;6.43;;;;;;;7.09;68.73;99493.25;5018464;28;99043;-76
2023/12/13 06:28:26;;;;;;;9.50;5.63;;;;;;;7.12;68.93;99498.44;5002854;28;99073;-77
2023/12/13 06:30:51;;;;;;;9.70;5.87;;;;;;;7.13;68.77;99485.44;5012147;28;105186;-76
2023/12/13 06:33:18;;;;;;;9.33;5.80;;;;;;;7.12;68.87;99476.44;5011679;28;97572;-77
2023/12/13 06:35:44;;;;;;;9.83;6.33;;;;;;;7.12;68.78;99481.94;5018492;28;96757;-77
2023/12/13 06:38:09;;;;;;;20.13;6.83;;;;;;;7.16;68.75;99492.66;5014602;28;97206;-76
2023/12/13 06:40:34;;;;;;;11.30;6.27;;;;;;;7.13;68.87;99486.19;5016595;28;98416;-76
2023/12/13 06:43:00;;;;;;;14.37;6.37;;;;;;;7.13;68.74;99496.44;5016128;27;96821;-76
2023/12/13 06:45:25;;;;;;;11.10;5.87;;;;;;;7.11;68.97;99488.72;5016992;28;106789;-76
2023/12/13 06:47:51;;;;;;;11.70;5.70;;;;;;;7.15;68.87;99486.41;4995122;28;102012;-76
2023/12/13 06:50:17;;;;;;;11.40;6.50;;;;;;;7.15;68.81;99485.66;5015194;28;96866;-76
2023/12/13 06:52:43;;;;;;;9.50;6.10;;;;;;;7.16;68.79;99493.38;5001801;28;97303;-76
2023/12/13 06:55:09;;;;;;;16.07;6.90;;;;;;;7.16;68.78;99496.13;4995650;28;97540;-77
2023/12/13 06:57:35;;;;;;;7.80;5.90;;;;;;;7.18;68.83;99490.13;5018571;28;97236;-77
2023/12/13 07:00:00;;;;;;;11.33;6.50;;;;;;;7.18;68.84;99490.84;4994162;28;99511;-76
2023/12/13 07:02:25;;;;;;;23.23;6.13;;;;;;;7.17;68.67;99488.63;5013672;28;97310;-76
2023/12/13 07:04:51;;;;;;;9.57;6.00;;;;;;;7.18;68.86;99492.88;5018884;28;99356;-76
2023/12/13 07:07:16;;;;;;;10.50;6.07;;;;;;;7.19;68.67;99497.09;5014029;28;97894;-76
2023/12/13 07:09:45;;;;;;;12.10;6.27;;;;;;;7.15;68.56;99493.91;5016083;28;106267;-76
2023/12/13 07:12:10;;;;;;;10.00;6.83;;;;;;;7.18;68.62;99499.09;5014942;28;96980;-76
2023/12/13 07:14:36;;;;;;;8.97;6.00;;;;;;;7.18;68.83;99493.59;5013967;28;97051;-76
2023/12/13 07:17:01;;;;;;;9.50;6.50;;;;;;;7.20;68.74;99509.59;4997682;28;99972;-76
2023/12/13 07:19:27;;;;;;;11.03;5.83;;;;;;;7.20;68.86;99509.59;5016112;28;98336;-76
2023/12/13 07:21:52;;;;;;;14.20;6.27;;;;;;;7.18;68.70;99495.63;5013606;28;96760;-76
2023/12/13 07:24:17;;;;;;;16.13;6.43;;;;;;;7.17;68.63;99514.13;5009045;28;97450;-76
2023/12/13 07:26:43;;;;;;;13.63;5.57;;;;;;;7.20;68.80;99504.09;5017558;28;97538;-76
2023/12/13 07:29:08;;;;;;;14.13;6.10;;;;;;;7.17;68.75;99502.38;5015246;28;103297;-76
2023/12/13 07:31:39;;;;;;;13.77;6.30;;;;;;;7.18;68.80;99518.34;5002535;28;100194;-77
2023/12/13 07:34:05;;;;;;;25.50;7.10;;;;;;;7.16;68.72;99509.88;5013780;28;97337;-76
2023/12/13 07:36:30;;;;;;;13.80;6.27;;;;;;;7.19;68.81;99516.34;5013153;28;97845;-77
2023/12/13 07:38:56;;;;;;;8.90;5.80;;;;;;;7.19;68.88;99519.84;5002252;28;97450;-77
2023/12/13 07:41:21;;;;;;;12.53;6.07;;;;;;;7.18;68.85;99512.84;5000384;28;97829;-76
2023/12/13 07:43:46;;;;;;;9.63;5.80;;;;;;;7.19;68.78;99535.59;5016155;28;96993;-76
2023/12/13 07:46:13;;;;;;;11.33;5.53;;;;;;;7.20;68.72;99526.09;5013755;28;100030;-77
2023/12/13 07:48:41;;;;;;;15.40;6.17;;;;;;;7.20;68.63;99528.84;5016149;28;98805;-76
2023/12/13 07:51:06;;;;;;;8.30;5.80;;;;;;;7.18;68.74;99526.59;5013995;28;96629;-76
2023/12/13 07:53:31;;;;;;;8.67;5.57;;;;;;;7.18;68.85;99529.34;5013726;28;98207;-76
2023/12/13 07:55:57;;;;;;;11.13;5.20;;;;;;;7.21;69.00;99525.56;5016491;28;105933;-77
2023/12/13 07:58:22;;;;;;;12.27;5.60;;;;;;;7.22;68.82;99526.31;5015369;27;108157;-76
2023/12/13 08:00:47;;;;;;;14.37;5.70;;;;;;;7.23;68.84;99528.53;5001452;28;97077;-76
2023/12/13 08:03:13;;;;;;;13.20;6.40;;;;;;;7.24;68.90;99532.03;5012959;28;97175;-76
2023/12/13 08:05:38;;;;;;;10.10;5.60;;;;;;;7.22;68.81;99540.81;5013883;28;101228;-77
2023/12/13 08:08:04;;;;;;;11.10;6.23;;;;;;;7.23;68.76;99528.53;5001551;28;108921;-76
2023/12/13 08:10:29;;;;;;;8.20;5.77;;;;;;;7.27;68.81;99528.25;5016020;28;97481;-77
2023/12/13 08:12:54;;;;;;;7.90;5.33;;;;;;;7.29;68.89;99536.75;5014027;28;102185;-77
2023/12/13 08:15:20;;;;;;;8.30;5.40;;;;;;;7.27;68.65;99533.75;5010808;28;97580;-76
2023/12/13 08:17:46;;;;;;;12.80;7.00;;;;;;;7.29;68.79;99531.25;5013162;28;97443;-77
2023/12/13 08:20:11;;;;;;;15.67;6.00;;;;;;;7.30;68.77;99546.47;4997257;28;97160;-77
2023/12/13 08:22:37;;;;;;;8.33;5.70;;;;;;;7.32;68.82;99530.19;4997003;28;97397;-77
2023/12/13 08:25:03;;;;;;;11.53;6.00;;;;;;;7.32;68.91;99533.69;5018986;28;96662;-76
2023/12/13 08:27:28;;;;;;;18.10;5.83;;;;;;;7.29;68.61;99531.25;5013540;28;97428;-76
2023/12/13 08:29:54;;;;;;;15.40;6.00;;;;;;;7.22;68.89;99543.56;5007123;28;98201;-77
2023/12/13 08:32:19;;;;;;;11.97;6.23;;;;;;;7.24;68.97;99540.28;5012182;28;97084;-76
2023/12/13 08:34:44;;;;;;;13.90;5.70;;;;;;;7.24;69.10;99540.28;5014634;28;112015;-77
2023/12/13 08:37:10;;;;;;;15.90;6.40;;;;;;;7.26;68.99;99543.28;5014279;28;97389;-76
2023/12/13 08:39:35;;;;;;;10.97;6.03;;;;;;;7.25;68.92;99547.28;5015294;28;97619;-76
2023/12/13 08:42:00;;;;;;;15.93;6.43;;;;;;;7.23;68.91;99538.78;5002052;28;96940;-76
2023/12/13 08:44:26;;;;;;;9.53;5.60;;;;;;;7.23;69.22;99550.56;5012907;28;102841;-76
2023/12/13 08:46:52;;;;;;;11.13;6.30;;;;;;;7.28;69.16;99549.75;5015576;28;97101;-76
2023/12/13 08:49:19;;;;;;;22.97;6.83;;;;;;;7.32;69.12;99550.19;4996313;28;97483;-76
2023/12/13 08:51:44;;;;;;;17.37;6.20;;;;;;;7.25;69.02;99539.03;4997037;28;96662;-76
2023/12/13 08:54:09;;;;;;;10.63;6.20;;;;;;;7.24;69.28;99543.03;5012209;28;97856;-76
2023/12/13 08:56:35;;;;;;;11.77;6.67;;;;;;;7.30;69.51;99541.72;5014083;28;97277;-77
2023/12/13 08:59:01;;;;;;;16.43;6.30;;;;;;;7.31;69.21;99558.97;5015635;28;97089;-76
2023/12/13 09:01:26;;;;;;;20.07;7.00;;;;;;;7.39;69.08;99557.09;5010526;28;96926;-77
2023/12/13 09:03:52;;;;;;;16.00;6.63;;;;;;;7.37;69.01;99551.38;4995357;28;100399;-76
2023/12/13 09:06:18;;;;;;;10.47;6.40;;;;;;;7.37;69.14;99560.38;5012261;28;97730;-76
2023/12/13 09:08:44;;;;;;;17.90;6.43;;;;;;;7.43;69.30;99552.03;5014053;28;96961;-76
2023/12/13 09:11:10;;;;;;;12.37;5.30;;;;;;;7.42;69.26;99545.06;4997161;28;96730;-76
2023/12/13 09:13:35;;;;;;;9.87;6.10;;;;;;;7.48;69.22;99565.75;5016087;28;98888;-76
2023/12/13 09:16:01;;;;;;;9.90;5.93;;;;;;;7.51;69.33;99564.69;5014593;28;101162;-76
2023/12/13 09:18:26;;;;;;;11.33;6.03;;;;;;;7.54;69.26;99568.41;5016308;28;97303;-76
2023/12/13 09:20:51;;;;;;;10.17;6.53;;;;;;;7.54;69.24;99560.16;5015263;28;99745;-77
2023/12/13 09:23:22;;;;;;;10.43;6.50;;;;;;;7.62;69.24;99566.53;4989149;28;99125;-76
2023/12/13 09:25:47;;;;;;;14.17;7.60;;;;;;;7.64;69.00;99569.50;5010539;28;97408;-76
2023/12/13 09:28:12;;;;;;;11.20;7.10;;;;;;;7.64;69.18;99577.75;5015489;28;96715;-77
2023/12/13 09:30:38;;;;;;;21.87;7.10;;;;;;;7.63;69.18;99588.03;5008854;28;112667;-76
2023/12/13 09:33:03;;;;;;;16.90;7.63;;;;;;;7.56;69.02;99585.13;5014585;28;97481;-76
2023/12/13 09:35:28;;;;;;;9.70;6.57;;;;;;;7.55;69.50;99576.13;5012509;28;99325;-76
2023/12/13 09:37:54;;;;;;;10.50;6.90;;;;;;;7.55;69.29;99575.41;5011071;28;97254;-76
2023/12/13 09:40:19;;;;;;;9.87;6.67;;;;;;;7.59;69.49;99573.84;5012452;28;100750;-76
2023/12/13 09:42:46;;;;;;;9.07;6.13;;;;;;;7.63;69.35;99581.78;4998005;28;99939;-76
2023/12/13 09:45:17;;;;;;;9.47;6.60;;;;;;;7.64;69.19;99589.53;4993690;28;100014;-77
2023/12/13 09:47:43;;;;;;;11.80;6.97;;;;;;;7.61;69.27;99570.56;5008135;28;96899;-76
2023/12/13 09:50:11;;;;;;;9.00;6.27;;;;;;;7.56;69.29;99577.63;4992412;28;97359;-76
2023/12/13 09:52:37;;;;;;;8.20;6.03;;;;;;;7.53;69.44;99581.41;5007423;28;98573;-76
2023/12/13 09:55:03;;;;;;;8.50;5.97;;;;;;;7.56;69.52;99576.88;4987958;28;99476;-76
2023/12/13 09:57:29;;;;;;;10.90;6.23;;;;;;;7.59;69.31;99584.84;5006953;28;97321;-76
2023/12/13 09:59:54;;;;;;;10.17;6.43;;;;;;;7.58;69.58;99586.09;5009446;28;96909;-76
2023/12/13 10:02:20;;;;;;;10.17;6.57;;;;;;;7.58;69.31;99593.59;5011702;28;97461;-76
2023/12/13 10:04:46;;;;;;;10.17;5.63;;;;;;;7.57;69.58;99589.38;5011179;27;97559;-76
2023/12/13 10:07:12;;;;;;;9.30;5.57;;;;;;;7.59;69.41;99593.09;5015232;28;97157;-76
2023/12/13 10:09:37;;;;;;;8.77;6.50;;;;;;;7.55;69.45;99589.88;4993513;28;97495;-76
2023/12/13 10:12:04;;;;;;;8.77;5.70;;;;;;;7.48;69.48;99585.00;5001390;28;100175;-76
2023/12/13 10:14:30;;;;;;;8.70;6.17;;;;;;;7.48;69.41;99598.00;5012368;28;97045;-76
2023/12/13 10:16:55;;;;;;;6.63;5.27;;;;;;;7.48;69.36;99587.00;5018264;28;97223;-76
2023/12/13 10:19:21;;;;;;;6.70;4.87;;;;;;;7.44;69.48;99598.28;5014137;28;97199;-76
2023/12/13 10:21:48;;;;;;;6.80;4.87;;;;;;;7.43;69.64;99596.06;4995528;28;99204;-76
2023/12/13 10:24:15;;;;;;;6.00;4.87;;;;;;;7.42;69.59;99594.59;5016836;28;98446;-76
2023/12/13 10:26:40;;;;;;;6.77;5.00;;;;;;;7.45;69.45;99588.03;4995498;28;96728;-76
2023/12/13 10:29:06;;;;;;;4.90;4.40;;;;;;;7.45;69.75;99582.53;5015934;28;97347;-76
2023/12/13 10:31:31;;;;;;;5.13;4.57;;;;;;;7.44;69.64;99608.56;5014402;28;102618;-76
2023/12/13 10:33:57;;;;;;;5.13;4.50;;;;;;;7.44;69.77;99606.53;5001398;28;100267;-76
2023/12/13 10:36:25;;;;;;;6.17;4.63;;;;;;;7.44;69.50;99609.28;4998673;28;96663;-77
2023/12/13 10:38:52;;;;;;;6.13;4.30;;;;;;;7.44;69.74;99611.31;5012720;28;97173;-77
2023/12/13 10:41:21;;;;;;;5.50;3.80;;;;;;;7.42;69.51;99597.34;5010874;28;97657;-76
2023/12/13 10:43:47;;;;;;;4.10;3.73;;;;;;;7.44;69.29;99603.06;4992518;28;99250;-76
2023/12/13 10:46:16;;;;;;;4.90;4.43;;;;;;;7.45;69.68;99604.53;5013742;28;96857;-76
2023/12/13 10:48:42;;;;;;;4.40;3.87;;;;;;;7.46;69.66;99598.53;5016992;28;97404;-76
2023/12/13 10:51:09;;;;;;;4.50;4.07;;;;;;;7.48;69.53;99611.78;4990098;28;99975;-77
2023/12/13 10:53:36;;;;;;;4.73;3.10;;;;;;;7.52;69.47;99610.22;5015476;28;97482;-77
2023/12/13 10:56:02;;;;;;;3.60;3.30;;;;;;;7.53;69.41;99608.22;4994024;28;97460;-76
2023/12/13 10:58:28;;;;;;;2.90;2.70;;;;;;;7.56;69.68;99607.16;5010884;28;97409;-77
2023/12/13 11:00:55;;;;;;;3.07;2.87;;;;;;;7.57;69.28;99603.88;5012938;28;97167;-77
2023/12/13 11:03:48;;;;;;;2.80;2.60;;;;;;;7.57;69.35;99597.66;5011859;28;98264;-75
2023/12/13 11:06:16;;;;;;;2.53;2.33;;;;;;;7.55;69.25;99597.44;5012589;28;96703;-76
2023/12/13 11:08:46;;;;;;;2.33;2.23;;;;;;;7.49;69.41;99600.22;5000300;28;97067;-77
2023/12/13 11:11:13;;;;;;;2.13;1.90;;;;;;;7.48;69.40;99600.75;5014181;28;97595;-77
2023/12/13 11:14:01;;;;;;;2.00;1.90;;;;;;;7.43;69.47;99607.06;4999752;28;99439;-76
2023/12/13 11:16:27;;;;;;;1.90;1.70;;;;;;;7.41;69.43;99617.84;5012280;27;96968;-76
2023/12/13 11:18:56;;;;;;;3.60;1.77;;;;;;;7.41;69.49;99612.34;5017067;28;97174;-76
2023/12/13 11:21:28;;;;;;;1.93;1.83;;;;;;;7.34;69.46;99618.44;4995325;28;100377;-75
2023/12/13 11:23:54;;;;;;;1.47;1.37;;;;;;;7.34;69.66;99616.44;4996016;28;101512;-76
2023/12/13 11:26:22;;;;;;;1.60;1.50;;;;;;;7.36;69.52;99619.41;4995200;28;97019;-76
2023/12/13 11:28:50;;;;;;;1.50;1.40;;;;;;;7.41;69.68;99620.59;5011516;28;97389;-77